Terminal Aerodrome Forecast
Issued by NWS Indianapolis, IN

Home | Current Version | Previous Version | Text Only | Print | Product List | Glossary On
Versions: 1 2 3 4 5 6 7 8 9 10 11 12 13 14 15 16 17 18 19 20 21 22 23 24 25
000
FTUS43 KIND 112014 AAA
TAFIND
TAF AMD
KIND 112014Z 1120/1224 14009KT P6SM SCT150 BKN250
     FM120200 25009KT P6SM BKN200
     FM120400 28012KT P6SM BKN030
     FM120600 31015G24KT P6SM OVC020
     FM120800 31017G27KT P6SM VCSH BKN020=

USA.gov is the U.S. government's official web portal to all federal, state and local government web resources and services.